Terminal Aerodrome Forecast
Issued by NWS

Home | Current Version | Previous Version | Text Only | Print | Product List | Glossary Off
Versions: 1 2 3 4 5 6 7 8 9 10 11 12 13 14 15

889
FTUS43 KICT 101130
TAFCNU
TAF
KCNU 101130Z 1012/1112 19005KT P6SM BKN090
     FM101400 19013KT P6SM SCT090
     FM101700 20016G23KT P6SM SKC
     FM102300 28009KT P6SM SKC
     FM110300 36007KT P6SM SKC=

USA.gov is the U.S. government's official web portal to all federal, state and local government web resources and services.